Terminal Aerodrome Forecast
Issued by NWS

Home | Current Version | Previous Version | Text Only | Print | Product List | Glossary On
Versions: 1 2 3 4 5 6 7 8 9 10 11 12 13 14 15
000
FTUS46 KLOX 250539
TAFPRB
TAF
KPRB 250539Z 2506/2606 28007KT P6SM SKC
     FM250700 VRB05KT P6SM SKC
     FM251700 22006KT P6SM SKC
     FM252300 22015KT P6SM SKC
     FM260500 28006KT P6SM SKC=

USA.gov is the U.S. government's official web portal to all federal, state and local government web resources and services.